createdAt,value
2023-01-19T00:02:00.500Z,3.26
2023-01-19T00:04:28.089Z,3.34
2023-01-19T00:06:56.115Z,3.16
2023-01-19T00:09:23.621Z,2.96
2023-01-19T00:11:51.614Z,2.96
2023-01-19T00:14:21.066Z,3.06
2023-01-19T00:16:49.032Z,2.87
2023-01-19T00:19:16.811Z,3.00
2023-01-19T00:21:45.168Z,3.17
2023-01-19T00:24:12.839Z,3.05
2023-01-19T00:26:40.864Z,2.52
2023-01-19T00:29:08.760Z,2.57
2023-01-19T00:31:38.866Z,2.57
2023-01-19T00:34:07.633Z,2.53
2023-01-19T00:36:35.709Z,2.62
2023-01-19T00:39:03.306Z,2.69
2023-01-19T00:41:31.618Z,2.61
2023-01-19T00:43:59.391Z,2.67
2023-01-19T00:46:27.259Z,2.62
2023-01-19T00:48:56.446Z,2.60
2023-01-19T00:51:24.437Z,2.67
2023-01-19T00:53:51.998Z,2.62
2023-01-19T00:56:20.183Z,2.81
2023-01-19T00:58:47.719Z,2.51
2023-01-19T01:01:15.791Z,2.47
2023-01-19T01:03:43.411Z,2.38
2023-01-19T01:06:13.106Z,2.26
2023-01-19T01:08:41.155Z,2.28
2023-01-19T01:11:09.365Z,2.30
2023-01-19T01:13:37.476Z,2.32
2023-01-19T01:16:06.515Z,2.29
2023-01-19T01:18:34.361Z,2.38
2023-01-19T01:21:02.720Z,2.51
2023-01-19T01:23:32.064Z,2.60
2023-01-19T01:26:00.414Z,2.49
2023-01-19T01:28:27.945Z,2.47
2023-01-19T01:30:57.146Z,2.48
2023-01-19T01:33:41.341Z,2.56
2023-01-19T01:36:11.316Z,2.56
2023-01-19T01:38:41.207Z,2.46
2023-01-19T01:41:10.003Z,2.45
2023-01-19T01:43:48.967Z,2.35
2023-01-19T01:46:17.943Z,2.19
2023-01-19T01:48:52.560Z,2.17
2023-01-19T01:51:26.352Z,2.35
2023-01-19T01:54:14.096Z,2.51
2023-01-19T01:56:45.001Z,2.56
2023-01-19T01:59:15.791Z,2.55
2023-01-19T02:01:44.255Z,2.54
2023-01-19T02:04:11.875Z,2.51
2023-01-19T02:06:42.966Z,2.51
2023-01-19T02:09:12.232Z,2.70
2023-01-19T02:11:41.718Z,2.54
2023-01-19T02:14:09.325Z,2.57
2023-01-19T02:16:38.467Z,2.59
2023-01-19T02:19:08.936Z,2.72
2023-01-19T02:21:44.644Z,2.64
2023-01-19T02:24:14.239Z,2.61
2023-01-19T02:26:44.966Z,2.61
2023-01-19T02:29:16.568Z,2.65
2023-01-19T02:31:44.738Z,2.58
2023-01-19T02:34:14.868Z,2.60
2023-01-19T02:36:48.961Z,2.70
2023-01-19T02:39:20.548Z,2.58
2023-01-19T02:41:53.369Z,2.55
2023-01-19T02:44:24.216Z,2.55
2023-01-19T02:46:54.382Z,2.47
2023-01-19T02:49:22.048Z,2.61
2023-01-19T02:51:50.738Z,2.67
2023-01-19T02:54:33.845Z,2.61
2023-01-19T02:57:26.477Z,2.73
2023-01-19T03:00:07.629Z,2.64
2023-01-19T03:02:48.771Z,2.59
2023-01-19T03:05:27.356Z,2.50
2023-01-19T03:08:06.397Z,2.47
2023-01-19T03:10:45.577Z,2.54
2023-01-19T03:13:19.158Z,2.49
2023-01-19T03:15:50.369Z,2.35
2023-01-19T03:18:23.110Z,2.38
2023-01-19T03:20:52.627Z,2.35
2023-01-19T03:23:24.334Z,2.40
2023-01-19T03:25:56.262Z,2.38
2023-01-19T03:28:26.884Z,2.41
2023-01-19T03:30:59.164Z,2.44
2023-01-19T03:33:32.339Z,2.52
2023-01-19T03:36:05.670Z,2.53
2023-01-19T03:38:38.531Z,2.39
2023-01-19T03:41:11.707Z,2.22
2023-01-19T03:43:41.167Z,2.18
2023-01-19T03:46:09.893Z,2.21
2023-01-19T03:48:38.974Z,2.17
2023-01-19T03:51:09.088Z,2.16
2023-01-19T03:53:37.379Z,2.18
2023-01-19T03:56:08.800Z,2.18
2023-01-19T03:58:38.328Z,2.22
2023-01-19T04:01:05.961Z,2.17
2023-01-19T04:03:33.987Z,2.38
2023-01-19T04:06:01.608Z,2.33
2023-01-19T04:08:29.660Z,2.27
2023-01-19T04:10:58.271Z,2.13
2023-01-19T04:13:26.452Z,2.07
2023-01-19T04:15:55.602Z,2.01
2023-01-19T04:18:23.545Z,2.24
2023-01-19T04:20:50.985Z,2.26
2023-01-19T04:23:19.039Z,2.23
2023-01-19T04:25:46.549Z,2.20
2023-01-19T04:28:14.325Z,2.14
2023-01-19T04:30:41.839Z,2.13
2023-01-19T04:33:11.057Z,2.20
2023-01-19T04:35:38.759Z,2.25
2023-01-19T04:38:06.805Z,2.25
2023-01-19T04:40:34.316Z,2.21
2023-01-19T04:43:02.523Z,2.37
2023-01-19T04:45:30.265Z,2.37
2023-01-19T04:47:58.762Z,2.42
2023-01-19T04:50:27.887Z,2.13
2023-01-19T04:52:56.002Z,2.25
2023-01-19T04:55:23.981Z,2.05
2023-01-19T04:57:51.942Z,2.09
2023-01-19T05:00:19.911Z,2.31
2023-01-19T05:02:48.100Z,2.24
2023-01-19T05:05:16.298Z,2.21
2023-01-19T05:07:45.547Z,2.28
2023-01-19T05:10:13.601Z,2.22
2023-01-19T05:12:41.423Z,2.23
2023-01-19T05:15:13.205Z,2.07
2023-01-19T05:17:40.737Z,2.03
2023-01-19T05:20:11.155Z,1.94
2023-01-19T05:22:38.795Z,2.08
2023-01-19T05:25:09.522Z,2.13
2023-01-19T05:27:37.442Z,2.22
2023-01-19T05:30:09.259Z,2.20
2023-01-19T05:32:36.885Z,2.15
2023-01-19T05:35:05.346Z,2.15
2023-01-19T05:37:32.952Z,2.21
2023-01-19T05:40:01.045Z,2.18
2023-01-19T05:42:32.113Z,2.02
2023-01-19T05:45:00.743Z,2.03
2023-01-19T05:47:29.759Z,2.00
2023-01-19T05:49:57.719Z,2.11
2023-01-19T05:52:25.407Z,2.16
2023-01-19T05:54:53.430Z,2.19
2023-01-19T05:57:21.099Z,2.07
2023-01-19T05:59:50.692Z,2.02
2023-01-19T06:02:18.320Z,2.24
2023-01-19T06:04:46.401Z,2.21
2023-01-19T06:07:14.080Z,2.22
2023-01-19T06:09:41.890Z,2.14
2023-01-19T06:12:09.506Z,2.11
2023-01-19T06:14:37.665Z,2.13
2023-01-19T06:17:07.142Z,2.20
2023-01-19T06:19:37.741Z,2.30
2023-01-19T06:22:05.792Z,2.26
2023-01-19T06:24:33.779Z,2.20
2023-01-19T06:27:01.450Z,2.16
2023-01-19T06:29:29.784Z,2.12
2023-01-19T06:31:59.979Z,2.08
2023-01-19T06:34:29.597Z,2.08
2023-01-19T06:36:57.783Z,1.94
2023-01-19T06:39:26.023Z,1.92
2023-01-19T06:41:53.891Z,1.78
2023-01-19T06:44:21.765Z,1.72
2023-01-19T06:46:49.927Z,1.74
2023-01-19T06:49:17.901Z,1.81
2023-01-19T06:51:46.893Z,1.81
2023-01-19T06:54:14.783Z,1.70
2023-01-19T06:56:42.385Z,1.58
2023-01-19T06:59:10.365Z,1.60
2023-01-19T07:01:40.663Z,1.57
2023-01-19T07:04:08.849Z,1.52
2023-01-19T07:06:36.685Z,1.60
2023-01-19T07:09:06.318Z,1.81
2023-01-19T07:11:34.241Z,1.56
2023-01-19T07:14:02.392Z,1.74
2023-01-19T07:16:32.514Z,1.64
2023-01-19T07:19:03.749Z,1.61
2023-01-19T07:21:31.319Z,1.62
2023-01-19T07:23:59.378Z,1.65
2023-01-19T07:26:28.661Z,1.69
2023-01-19T07:28:57.035Z,1.65
2023-01-19T07:31:24.797Z,1.73
2023-01-19T07:33:52.860Z,1.88
2023-01-19T07:36:20.400Z,1.77
2023-01-19T07:38:48.560Z,1.80
2023-01-19T07:41:16.135Z,1.84
2023-01-19T07:43:45.615Z,1.89
2023-01-19T07:46:13.131Z,1.81
2023-01-19T07:48:41.134Z,1.80
2023-01-19T07:51:12.493Z,1.83
2023-01-19T07:53:40.838Z,1.72
2023-01-19T07:56:08.887Z,1.76
2023-01-19T07:58:36.804Z,1.91
2023-01-19T08:01:08.526Z,1.88
2023-01-19T08:03:36.608Z,2.02
2023-01-19T08:06:05.506Z,2.04
2023-01-19T08:08:33.981Z,1.91
2023-01-19T08:11:01.531Z,1.95
2023-01-19T08:13:32.079Z,2.19
2023-01-19T08:15:59.616Z,2.13
2023-01-19T08:18:29.479Z,2.08
2023-01-19T08:20:58.880Z,2.13
2023-01-19T08:23:28.283Z,2.22
2023-01-19T08:25:55.944Z,2.33
2023-01-19T08:28:24.194Z,2.25
2023-01-19T08:30:51.833Z,2.26
2023-01-19T08:33:20.401Z,2.47
2023-01-19T08:35:51.152Z,2.74
2023-01-19T08:38:19.048Z,2.87
2023-01-19T08:40:46.656Z,2.86
2023-01-19T08:43:17.099Z,3.00
2023-01-19T08:45:50.441Z,3.17
2023-01-19T08:48:19.943Z,3.27
2023-01-19T08:50:49.937Z,3.56
2023-01-19T08:53:19.480Z,3.85
2023-01-19T08:55:47.352Z,3.89
2023-01-19T08:58:15.704Z,3.97
2023-01-19T09:00:43.185Z,4.17
2023-01-19T09:03:12.754Z,4.35
2023-01-19T09:05:40.726Z,4.43
2023-01-19T09:08:12.388Z,4.72
2023-01-19T09:10:44.496Z,4.68
2023-01-19T09:13:13.206Z,4.81
2023-01-19T09:15:42.030Z,4.77
2023-01-19T09:18:12.129Z,4.82
2023-01-19T09:20:40.588Z,5.02
2023-01-19T09:23:10.999Z,5.07
2023-01-19T09:25:39.296Z,5.25
2023-01-19T09:28:08.157Z,4.98
2023-01-19T09:30:37.090Z,4.96
2023-01-19T09:33:06.109Z,5.01
2023-01-19T09:35:33.892Z,5.18
2023-01-19T09:38:02.233Z,5.15
2023-01-19T09:40:32.247Z,5.14
2023-01-19T09:43:12.069Z,4.98
2023-01-19T09:45:45.190Z,5.15
2023-01-19T09:48:26.499Z,5.33
2023-01-19T09:50:56.629Z,5.24
2023-01-19T09:53:39.123Z,5.26
2023-01-19T09:56:12.798Z,5.38
2023-01-19T09:58:41.590Z,5.57
2023-01-19T10:01:24.354Z,5.90
2023-01-19T10:04:08.409Z,6.00
2023-01-19T10:06:36.787Z,6.18
2023-01-19T10:09:11.386Z,6.25
2023-01-19T10:11:53.804Z,6.28
2023-01-19T10:14:29.263Z,6.42
2023-01-19T10:17:10.483Z,6.62
2023-01-19T10:19:46.535Z,6.77
2023-01-19T10:22:20.584Z,6.96
2023-01-19T10:24:53.316Z,7.06
2023-01-19T10:27:26.456Z,6.88
2023-01-19T10:29:54.697Z,6.86
2023-01-19T10:32:24.090Z,7.00
2023-01-19T10:34:53.291Z,7.02
2023-01-19T10:37:30.517Z,7.14
2023-01-19T10:40:07.969Z,7.14
2023-01-19T10:42:38.519Z,7.36
2023-01-19T10:45:15.775Z,7.68
2023-01-19T10:47:45.983Z,7.83
2023-01-19T10:50:25.629Z,7.92
2023-01-19T10:52:54.894Z,7.93
2023-01-19T10:55:30.576Z,8.03
2023-01-19T10:58:00.178Z,8.14
2023-01-19T11:00:34.319Z,8.28
2023-01-19T11:03:02.395Z,8.29
2023-01-19T11:05:32.348Z,8.25
2023-01-19T11:08:00.528Z,8.21
2023-01-19T11:10:29.868Z,8.72
2023-01-19T11:13:04.889Z,8.73
2023-01-19T11:15:35.154Z,8.88
2023-01-19T11:18:05.071Z,8.90
2023-01-19T11:20:40.719Z,8.98
2023-01-19T11:23:20.282Z,8.70
2023-01-19T11:25:51.074Z,8.60
2023-01-19T11:28:26.157Z,8.74
2023-01-19T11:30:56.039Z,8.97
2023-01-19T11:33:25.528Z,8.98
2023-01-19T11:36:03.495Z,9.18
2023-01-19T11:38:31.460Z,9.17
2023-01-19T11:41:01.341Z,9.09
2023-01-19T11:43:43.506Z,9.39
2023-01-19T11:46:17.701Z,9.35
2023-01-19T11:48:52.381Z,9.50
2023-01-19T11:51:21.834Z,9.40
2023-01-19T11:53:52.875Z,9.60
2023-01-19T11:56:24.417Z,9.78
2023-01-19T11:58:53.416Z,9.62
2023-01-19T12:01:24.841Z,9.68
2023-01-19T12:03:58.749Z,9.78
2023-01-19T12:06:31.428Z,9.84
2023-01-19T12:09:03.478Z,9.57
2023-01-19T12:11:34.896Z,9.26
2023-01-19T12:14:07.100Z,9.48
2023-01-19T12:16:38.170Z,9.27
2023-01-19T12:19:11.087Z,9.42
2023-01-19T12:21:39.351Z,9.52
2023-01-19T12:24:15.077Z,9.54
2023-01-19T12:26:51.269Z,9.42
2023-01-19T12:29:23.068Z,9.25
2023-01-19T12:32:19.658Z,9.19
2023-01-19T12:34:49.289Z,8.99
2023-01-19T12:37:37.369Z,8.71
2023-01-19T12:40:20.576Z,8.67
2023-01-19T12:42:55.332Z,8.41
2023-01-19T12:45:29.104Z,8.31
2023-01-19T12:47:57.128Z,8.34
2023-01-19T12:50:25.985Z,8.42
2023-01-19T12:52:56.771Z,8.48
2023-01-19T12:55:27.233Z,8.32
2023-01-19T12:57:59.259Z,8.25
2023-01-19T13:00:41.518Z,8.11
2023-01-19T13:03:51.699Z,8.10
2023-01-19T13:06:19.364Z,7.81
2023-01-19T13:08:59.156Z,7.88
2023-01-19T13:11:30.303Z,7.85
2023-01-19T13:14:34.656Z,7.80
2023-01-19T13:17:36.138Z,7.72
2023-01-19T13:20:27.381Z,7.47
2023-01-19T13:23:17.379Z,7.46
2023-01-19T13:25:50.972Z,7.30
2023-01-19T13:28:30.769Z,7.21
2023-01-19T13:31:00.074Z,6.86
2023-01-19T13:33:40.994Z,6.86
2023-01-19T13:36:24.603Z,6.82
2023-01-19T13:38:52.851Z,6.56
2023-01-19T13:41:23.690Z,6.50
2023-01-19T13:43:58.739Z,6.35
2023-01-19T13:46:28.997Z,6.18
2023-01-19T13:49:01.647Z,6.27
2023-01-19T13:51:29.623Z,6.08
2023-01-19T13:53:57.981Z,5.95
2023-01-19T13:56:29.654Z,6.02
2023-01-19T13:59:02.864Z,6.12
2023-01-19T14:01:31.066Z,5.97
2023-01-19T14:04:00.828Z,5.89
2023-01-19T14:06:35.940Z,5.88
2023-01-19T14:09:15.310Z,5.78
2023-01-19T14:11:43.524Z,5.76
2023-01-19T14:14:27.802Z,5.65
2023-01-19T14:16:55.895Z,5.75
2023-01-19T14:19:25.606Z,5.58
2023-01-19T14:22:08.829Z,5.55
2023-01-19T14:24:36.514Z,5.54
2023-01-19T14:27:10.694Z,5.45
2023-01-19T14:29:38.362Z,5.37
2023-01-19T14:32:12.862Z,5.33
2023-01-19T14:34:43.317Z,5.12
2023-01-19T14:37:23.736Z,5.08
2023-01-19T14:39:58.226Z,4.95
2023-01-19T14:42:29.558Z,4.93
2023-01-19T14:45:00.234Z,4.94
2023-01-19T14:47:37.651Z,4.77
2023-01-19T14:50:21.268Z,4.72
2023-01-19T14:52:54.178Z,4.69
2023-01-19T14:55:25.362Z,4.78
2023-01-19T14:57:54.959Z,4.63
2023-01-19T15:00:23.325Z,4.27
2023-01-19T15:02:51.403Z,4.03
2023-01-19T15:05:20.802Z,3.83
2023-01-19T15:07:49.562Z,3.95
2023-01-19T15:10:20.831Z,3.77
2023-01-19T15:12:50.157Z,3.63
2023-01-19T15:15:20.343Z,3.74
2023-01-19T15:17:48.928Z,3.61
2023-01-19T15:20:18.214Z,3.62
2023-01-19T15:22:48.902Z,3.70
2023-01-19T15:25:18.110Z,3.71
2023-01-19T15:27:51.807Z,3.70
2023-01-19T15:30:21.762Z,3.65
2023-01-19T15:32:50.039Z,3.59
2023-01-19T15:35:19.464Z,3.61
2023-01-19T15:37:52.199Z,3.48
2023-01-19T15:40:20.650Z,3.22
2023-01-19T15:42:48.922Z,3.21
2023-01-19T15:45:35.315Z,2.83
2023-01-19T15:48:06.280Z,2.76
2023-01-19T15:50:35.954Z,2.69
2023-01-19T15:53:05.977Z,2.62
2023-01-19T15:55:34.016Z,2.53
2023-01-19T15:58:01.881Z,2.60
2023-01-19T16:00:30.798Z,2.58
2023-01-19T16:03:00.533Z,2.06
2023-01-19T16:05:42.672Z,1.82
2023-01-19T16:08:16.824Z,1.79
2023-01-19T16:10:44.689Z,1.91
2023-01-19T16:13:12.947Z,1.92
2023-01-19T16:15:41.077Z,1.90
2023-01-19T16:18:09.228Z,2.11
2023-01-19T16:20:36.995Z,2.14
2023-01-19T16:23:20.107Z,1.84
2023-01-19T16:25:57.655Z,1.66
2023-01-19T16:28:26.911Z,1.42
2023-01-19T16:30:54.681Z,1.19
2023-01-19T16:33:23.288Z,1.25
2023-01-19T16:35:51.249Z,1.28
2023-01-19T16:38:19.508Z,1.37
2023-01-19T16:40:47.336Z,1.40
2023-01-19T16:43:16.933Z,1.30
2023-01-19T16:45:58.216Z,1.33
2023-01-19T16:48:26.562Z,1.30
2023-01-19T16:51:02.444Z,1.08
2023-01-19T16:53:31.344Z,0.63
2023-01-19T16:55:58.991Z,0.58
2023-01-19T16:58:28.525Z,0.47
2023-01-19T17:00:56.196Z,0.35
2023-01-19T17:03:24.513Z,0.33
2023-01-19T17:05:52.920Z,0.43
2023-01-19T17:08:21.626Z,0.57
2023-01-19T17:10:49.178Z,0.49
2023-01-19T17:13:17.323Z,0.63
2023-01-19T17:15:46.491Z,0.81
2023-01-19T17:18:14.639Z,0.95
2023-01-19T17:20:42.303Z,1.00
2023-01-19T17:23:10.319Z,0.88
2023-01-19T17:25:38.081Z,0.74
2023-01-19T17:28:06.553Z,0.63
2023-01-19T17:30:34.377Z,0.45
2023-01-19T17:33:04.543Z,0.22
2023-01-19T17:35:34.483Z,0.02
2023-01-19T17:38:02.500Z,0.09
2023-01-19T17:40:31.178Z,0.33
2023-01-19T17:42:59.349Z,0.23
2023-01-19T17:45:27.443Z,0.05
2023-01-19T17:47:55.798Z,-0.12
2023-01-19T17:50:25.224Z,-0.14
2023-01-19T17:52:55.431Z,-0.27
2023-01-19T17:55:23.201Z,-0.40
2023-01-19T17:57:51.295Z,-0.47
2023-01-19T18:00:19.728Z,-0.28
2023-01-19T18:02:49.822Z,-0.32
2023-01-19T18:05:18.253Z,-0.15
2023-01-19T18:07:48.071Z,-0.34
2023-01-19T18:10:16.641Z,-0.24
2023-01-19T18:12:47.381Z,-0.24
2023-01-19T18:15:16.886Z,-0.53
2023-01-19T18:17:48.344Z,-1.16
2023-01-19T18:20:18.089Z,-1.15
2023-01-19T18:22:48.313Z,-1.03
2023-01-19T18:25:16.035Z,-1.12
2023-01-19T18:27:44.282Z,-1.13
2023-01-19T18:30:12.892Z,-1.38
2023-01-19T18:32:41.161Z,-1.32
2023-01-19T18:35:09.456Z,-1.37
2023-01-19T18:37:37.662Z,-1.48
2023-01-19T18:40:08.389Z,-1.21
2023-01-19T18:42:37.007Z,-0.96
2023-01-19T18:45:05.685Z,-0.89
2023-01-19T18:47:33.814Z,-1.09
2023-01-19T18:50:01.582Z,-1.13
2023-01-19T18:52:29.941Z,-1.09
2023-01-19T18:54:57.969Z,-1.03
2023-01-19T18:57:27.830Z,-1.01
2023-01-19T18:59:55.705Z,-1.02
2023-01-19T19:02:23.906Z,-0.94
2023-01-19T19:04:52.048Z,-0.76
2023-01-19T19:07:20.529Z,-0.71
2023-01-19T19:09:48.232Z,-0.66
2023-01-19T19:12:16.369Z,-0.60
2023-01-19T19:14:45.627Z,-0.56
2023-01-19T19:17:13.738Z,-0.48
2023-01-19T19:19:41.236Z,-0.53
2023-01-19T19:22:09.243Z,-0.69
2023-01-19T19:24:37.408Z,-0.65
2023-01-19T19:27:08.533Z,-0.72
2023-01-19T19:29:36.221Z,-0.90
2023-01-19T19:32:06.021Z,-1.03
2023-01-19T19:34:33.556Z,-1.07
2023-01-19T19:37:01.787Z,-1.00
2023-01-19T19:39:30.084Z,-0.82
2023-01-19T19:41:58.136Z,-0.94
2023-01-19T19:44:25.790Z,-1.00
2023-01-19T19:46:54.063Z,-1.06
2023-01-19T19:49:23.250Z,-1.15
2023-01-19T19:51:51.122Z,-1.09
2023-01-19T19:54:19.111Z,-1.03
2023-01-19T19:56:47.746Z,-1.20
2023-01-19T19:59:15.366Z,-1.10
2023-01-19T20:01:43.789Z,-1.01
2023-01-19T20:04:13.415Z,-0.97
2023-01-19T20:06:44.214Z,-0.90
2023-01-19T20:09:12.364Z,-0.78
2023-01-19T20:11:41.313Z,-0.91
2023-01-19T20:14:11.262Z,-0.85
2023-01-19T20:16:39.892Z,-0.92
2023-01-19T20:19:07.412Z,-0.92
2023-01-19T20:21:36.613Z,-0.95
2023-01-19T20:24:08.373Z,-0.96
2023-01-19T20:26:39.766Z,-1.02
2023-01-19T20:29:07.567Z,-1.13
2023-01-19T20:31:37.455Z,-1.14
2023-01-19T20:34:07.981Z,-1.19
2023-01-19T20:36:36.381Z,-1.02
2023-01-19T20:39:06.205Z,-1.20
2023-01-19T20:41:34.507Z,-1.22
2023-01-19T20:44:02.164Z,-1.20
2023-01-19T20:46:30.289Z,-1.28
2023-01-19T20:48:58.036Z,-1.17
2023-01-19T20:51:25.979Z,-1.09
2023-01-19T20:53:53.818Z,-1.20
2023-01-19T20:56:23.300Z,-1.21
2023-01-19T20:58:51.159Z,-1.20
2023-01-19T21:01:21.473Z,-1.21
2023-01-19T21:03:50.063Z,-1.20
2023-01-19T21:06:19.010Z,-1.03
2023-01-19T21:08:46.914Z,-0.85
2023-01-19T21:11:15.737Z,-0.76
2023-01-19T21:13:45.024Z,-1.02
2023-01-19T21:16:13.264Z,-1.09
2023-01-19T21:18:41.021Z,-1.13
2023-01-19T21:21:17.713Z,-1.28
2023-01-19T21:23:52.360Z,-1.17
2023-01-19T21:26:20.263Z,-1.15
2023-01-19T21:28:49.377Z,-1.30
2023-01-19T21:31:17.636Z,-1.33
2023-01-19T21:33:45.426Z,-1.57
2023-01-19T21:36:13.488Z,-1.55
2023-01-19T21:38:41.104Z,-1.52
2023-01-19T21:41:10.991Z,-1.49
2023-01-19T21:43:40.209Z,-1.37
2023-01-19T21:46:14.948Z,-1.30
2023-01-19T21:48:42.674Z,-1.19
2023-01-19T21:51:10.586Z,-1.26
2023-01-19T21:53:38.536Z,-1.26
2023-01-19T21:56:07.063Z,-1.13
2023-01-19T21:58:35.030Z,-1.12
2023-01-19T22:01:05.962Z,-1.25
2023-01-19T22:03:35.294Z,-1.26
2023-01-19T22:06:05.171Z,-1.09
2023-01-19T22:08:33.223Z,-0.83
2023-01-19T22:11:05.115Z,-0.88
2023-01-19T22:13:33.645Z,-1.18
2023-01-19T22:16:01.816Z,-1.16
2023-01-19T22:18:29.576Z,-1.08
2023-01-19T22:21:07.716Z,-1.06
2023-01-19T22:23:35.431Z,-0.99
2023-01-19T22:26:03.673Z,-1.12
2023-01-19T22:28:31.493Z,-1.05
2023-01-19T22:31:07.195Z,-0.86
2023-01-19T22:33:35.485Z,-0.92
2023-01-19T22:36:16.473Z,-0.95
2023-01-19T22:38:44.742Z,-1.21
2023-01-19T22:41:15.002Z,-1.02
2023-01-19T22:43:43.181Z,-0.75
2023-01-19T22:46:11.353Z,-0.69
2023-01-19T22:48:38.881Z,-0.62
2023-01-19T22:51:07.001Z,-0.53
2023-01-19T22:53:35.967Z,-0.63
2023-01-19T22:56:10.820Z,-0.63
2023-01-19T22:58:38.919Z,-0.68
2023-01-19T23:01:07.638Z,-0.67
2023-01-19T23:03:35.486Z,-0.88
2023-01-19T23:06:05.567Z,-0.84
2023-01-19T23:08:33.428Z,-0.79
2023-01-19T23:11:06.413Z,-0.87
2023-01-19T23:13:34.467Z,-1.00
2023-01-19T23:16:03.531Z,-1.03
2023-01-19T23:18:31.425Z,-1.10
2023-01-19T23:21:03.655Z,-1.03
2023-01-19T23:23:31.323Z,-1.12
2023-01-19T23:26:00.763Z,-1.09
2023-01-19T23:28:29.935Z,-1.03
2023-01-19T23:30:57.966Z,-0.95
2023-01-19T23:33:25.637Z,-0.85
2023-01-19T23:35:55.685Z,-0.86
2023-01-19T23:38:23.198Z,-0.82
2023-01-19T23:40:51.254Z,-0.80
2023-01-19T23:43:18.840Z,-0.69
2023-01-19T23:45:48.432Z,-0.81
2023-01-19T23:48:15.969Z,-0.81
2023-01-19T23:50:43.979Z,-0.89
2023-01-19T23:53:11.638Z,-1.07
2023-01-19T23:55:39.756Z,-1.16
2023-01-19T23:58:07.323Z,-1.36
